createdAt,value
2022-09-25T00:02:35.814Z,11.45
2022-09-25T00:05:19.592Z,11.57
2022-09-25T00:08:04.141Z,11.22
2022-09-25T00:10:50.600Z,11.57
2022-09-25T00:13:34.802Z,11.52
2022-09-25T00:16:23.136Z,11.83
2022-09-25T00:19:24.403Z,12.12
2022-09-25T00:22:08.198Z,12.23
2022-09-25T00:24:52.519Z,12.03
2022-09-25T00:27:36.399Z,12.26
2022-09-25T00:30:20.401Z,12.33
2022-09-25T00:33:05.591Z,12.40
2022-09-25T00:35:49.316Z,12.33
2022-09-25T00:38:33.728Z,12.35
2022-09-25T00:41:19.004Z,12.41
2022-09-25T00:44:05.360Z,12.41
2022-09-25T00:46:49.259Z,12.39
2022-09-25T00:49:34.408Z,12.40
2022-09-25T00:52:18.349Z,12.47
2022-09-25T00:55:06.766Z,12.25
2022-09-25T00:57:54.334Z,12.38
2022-09-25T01:00:38.067Z,12.28
2022-09-25T01:03:22.684Z,12.09
2022-09-25T01:06:10.459Z,12.32
2022-09-25T01:08:55.634Z,12.37
2022-09-25T01:11:39.325Z,12.52
2022-09-25T01:14:24.239Z,12.41
2022-09-25T01:17:14.783Z,12.24
2022-09-25T01:20:10.480Z,12.01
2022-09-25T01:23:15.122Z,11.97
2022-09-25T01:26:15.884Z,12.11
2022-09-25T01:29:12.593Z,12.18
2022-09-25T01:32:03.275Z,12.19
2022-09-25T01:34:55.609Z,12.23
2022-09-25T01:37:44.073Z,12.36
2022-09-25T01:40:33.536Z,12.48
2022-09-25T01:43:21.373Z,12.43
2022-09-25T01:46:14.174Z,12.64
2022-09-25T01:49:03.756Z,12.68
2022-09-25T01:51:52.505Z,12.62
2022-09-25T01:54:41.720Z,12.65
2022-09-25T01:57:29.288Z,12.73
2022-09-25T02:00:16.534Z,12.78
2022-09-25T02:03:11.386Z,12.63
2022-09-25T02:05:58.384Z,12.43
2022-09-25T02:08:47.509Z,12.63
2022-09-25T02:11:34.055Z,12.51
2022-09-25T02:14:23.386Z,12.17
2022-09-25T02:17:10.846Z,12.52
2022-09-25T02:20:13.236Z,12.42
2022-09-25T02:23:04.223Z,12.26
2022-09-25T02:25:56.550Z,12.40
2022-09-25T02:28:40.236Z,12.33
2022-09-25T02:31:29.800Z,12.46
2022-09-25T02:34:15.383Z,12.55
2022-09-25T02:37:00.829Z,12.39
2022-09-25T02:39:48.040Z,12.14
2022-09-25T02:42:43.500Z,12.33
2022-09-25T02:45:39.648Z,12.48
2022-09-25T02:48:31.609Z,12.41
2022-09-25T02:51:22.482Z,12.36
2022-09-25T02:54:14.120Z,12.36
2022-09-25T02:57:04.582Z,12.36
2022-09-25T02:59:54.893Z,12.40
2022-09-25T03:02:40.549Z,12.41
2022-09-25T03:05:26.241Z,12.25
2022-09-25T03:08:28.587Z,11.92
2022-09-25T03:11:16.056Z,11.22
2022-09-25T03:14:01.509Z,11.10
2022-09-25T03:16:48.984Z,11.63
2022-09-25T03:19:32.959Z,11.46
2022-09-25T03:22:16.711Z,11.85
2022-09-25T03:25:00.632Z,11.49
2022-09-25T03:27:48.104Z,11.50
2022-09-25T03:30:32.057Z,11.65
2022-09-25T03:33:16.871Z,11.71
2022-09-25T03:36:07.510Z,11.71
2022-09-25T03:38:52.846Z,11.85
2022-09-25T03:41:36.711Z,12.05
2022-09-25T03:44:21.812Z,12.03
2022-09-25T03:47:05.656Z,12.10
2022-09-25T03:49:49.422Z,12.09
2022-09-25T03:52:33.213Z,12.07
2022-09-25T03:55:17.324Z,12.04
2022-09-25T03:58:01.175Z,12.14
2022-09-25T04:00:47.571Z,12.20
2022-09-25T04:03:32.867Z,12.24
2022-09-25T04:06:20.366Z,12.04
2022-09-25T04:09:04.120Z,11.98
2022-09-25T04:11:47.913Z,12.15
2022-09-25T04:14:32.125Z,12.26
2022-09-25T04:17:17.220Z,12.41
2022-09-25T04:20:01.120Z,12.53
2022-09-25T04:22:44.923Z,12.15
2022-09-25T04:25:28.781Z,11.96
2022-09-25T04:28:12.580Z,11.98
2022-09-25T04:30:56.259Z,12.13
2022-09-25T04:33:49.244Z,12.04
2022-09-25T04:36:33.271Z,11.48
2022-09-25T04:39:20.290Z,11.33
2022-09-25T04:42:04.389Z,11.58
2022-09-25T04:44:48.330Z,11.96
2022-09-25T04:47:32.269Z,12.12
2022-09-25T04:50:17.851Z,12.21
2022-09-25T04:53:02.391Z,12.63
2022-09-25T04:55:48.224Z,12.63
2022-09-25T04:58:32.498Z,12.74
2022-09-25T05:01:17.972Z,12.75
2022-09-25T05:04:07.694Z,12.97
2022-09-25T05:06:54.320Z,13.03
2022-09-25T05:09:38.298Z,13.16
2022-09-25T05:12:22.161Z,13.25
2022-09-25T05:15:07.008Z,13.39
2022-09-25T05:17:52.637Z,13.45
2022-09-25T05:20:37.563Z,13.46
2022-09-25T05:23:24.073Z,13.56
2022-09-25T05:26:08.167Z,13.68
2022-09-25T05:28:52.311Z,13.54
2022-09-25T05:31:36.987Z,13.89
2022-09-25T05:34:21.224Z,14.08
2022-09-25T05:37:05.265Z,14.27
2022-09-25T05:39:50.705Z,14.26
2022-09-25T05:42:35.157Z,14.45
2022-09-25T05:45:21.174Z,14.83
2022-09-25T05:48:07.260Z,14.85
2022-09-25T05:50:53.500Z,14.98
2022-09-25T05:53:38.349Z,15.04
2022-09-25T05:56:25.056Z,15.52
2022-09-25T05:59:09.563Z,15.53
2022-09-25T06:01:53.619Z,15.09
2022-09-25T06:04:37.801Z,15.49
2022-09-25T06:07:21.876Z,15.66
2022-09-25T06:10:06.460Z,15.86
2022-09-25T06:12:52.982Z,15.97
2022-09-25T06:15:38.808Z,16.00
2022-09-25T06:18:24.453Z,16.00
2022-09-25T06:21:08.430Z,15.72
2022-09-25T06:23:53.090Z,15.81
2022-09-25T06:26:37.050Z,16.35
2022-09-25T06:29:22.579Z,16.52
2022-09-25T06:32:06.557Z,16.35
2022-09-25T06:34:50.425Z,16.52
2022-09-25T06:37:34.339Z,16.26
2022-09-25T06:40:18.445Z,16.61
2022-09-25T06:43:03.905Z,16.42
2022-09-25T06:45:50.234Z,16.58
2022-09-25T06:48:34.309Z,16.98
2022-09-25T06:51:18.800Z,16.77
2022-09-25T06:54:03.196Z,16.67
2022-09-25T06:56:50.601Z,16.88
2022-09-25T06:59:34.602Z,16.88
2022-09-25T07:02:37.399Z,16.45
2022-09-25T07:05:21.361Z,16.86
2022-09-25T07:08:05.604Z,16.52
2022-09-25T07:10:50.632Z,17.33
2022-09-25T07:13:36.999Z,17.12
2022-09-25T07:16:22.342Z,17.85
2022-09-25T07:19:07.989Z,17.41
2022-09-25T07:21:52.352Z,17.66
2022-09-25T07:24:36.565Z,17.70
2022-09-25T07:27:20.526Z,17.90
2022-09-25T07:30:05.408Z,18.30
2022-09-25T07:32:49.784Z,17.91
2022-09-25T07:35:35.520Z,18.32
2022-09-25T07:38:19.985Z,18.49
2022-09-25T07:41:06.926Z,18.86
2022-09-25T07:44:06.256Z,19.00
2022-09-25T07:46:58.394Z,19.10
2022-09-25T07:49:42.817Z,19.44
2022-09-25T07:52:28.481Z,19.18
2022-09-25T07:55:12.467Z,19.81
2022-09-25T07:57:58.827Z,19.69
2022-09-25T08:00:42.882Z,19.38
2022-09-25T08:03:27.125Z,19.79
2022-09-25T08:06:13.698Z,19.80
2022-09-25T08:09:00.393Z,19.86
2022-09-25T08:11:44.544Z,20.34
2022-09-25T08:14:29.302Z,20.63
2022-09-25T08:17:13.601Z,20.37
2022-09-25T08:19:57.905Z,20.67
2022-09-25T08:22:42.135Z,20.29
2022-09-25T08:25:27.683Z,20.66
2022-09-25T08:28:11.760Z,20.33
2022-09-25T08:30:56.301Z,20.48
2022-09-25T08:33:40.632Z,20.26
2022-09-25T08:36:24.572Z,19.91
2022-09-25T08:39:08.736Z,19.61
2022-09-25T08:41:55.936Z,19.93
2022-09-25T08:44:57.246Z,19.98
2022-09-25T08:48:06.822Z,19.90
2022-09-25T08:50:53.590Z,19.92
2022-09-25T08:53:39.153Z,20.35
2022-09-25T08:56:24.963Z,20.53
2022-09-25T08:59:24.237Z,20.58
2022-09-25T09:02:15.320Z,20.82
2022-09-25T09:05:01.557Z,20.93
2022-09-25T09:07:51.681Z,20.57
2022-09-25T09:10:39.000Z,20.98
2022-09-25T09:13:28.245Z,20.09
2022-09-25T09:16:21.114Z,20.66
2022-09-25T09:19:08.201Z,20.95
2022-09-25T09:22:01.012Z,20.74
2022-09-25T09:24:56.151Z,20.76
2022-09-25T09:28:00.023Z,20.84
2022-09-25T09:30:51.015Z,20.43
2022-09-25T09:33:48.764Z,20.77
2022-09-25T09:36:39.627Z,20.98
2022-09-25T09:39:32.370Z,21.24
2022-09-25T09:42:23.095Z,21.56
2022-09-25T09:45:17.511Z,21.81
2022-09-25T09:48:11.452Z,21.83
2022-09-25T09:51:02.897Z,21.92
2022-09-25T09:53:52.189Z,21.82
2022-09-25T09:56:37.301Z,22.03
2022-09-25T09:59:24.529Z,22.32
2022-09-25T10:02:20.077Z,22.55
2022-09-25T10:05:09.636Z,22.32
2022-09-25T10:07:56.025Z,22.85
2022-09-25T10:10:42.739Z,22.73
2022-09-25T10:13:33.189Z,23.04
2022-09-25T10:16:19.341Z,22.85
2022-09-25T10:19:08.759Z,22.64
2022-09-25T10:21:56.335Z,22.18
2022-09-25T10:25:02.894Z,22.05
2022-09-25T10:27:49.845Z,21.70
2022-09-25T10:30:34.536Z,21.37
2022-09-25T10:33:21.969Z,21.49
2022-09-25T10:36:06.189Z,21.72
2022-09-25T10:38:58.043Z,21.86
2022-09-25T10:41:50.612Z,21.97
2022-09-25T10:44:36.904Z,21.99
2022-09-25T10:47:50.697Z,22.24
2022-09-25T10:50:37.122Z,22.17
2022-09-25T10:53:30.806Z,22.02
2022-09-25T10:56:20.762Z,22.06
2022-09-25T10:59:16.089Z,22.55
2022-09-25T11:02:00.755Z,22.58
2022-09-25T11:04:47.312Z,22.34
2022-09-25T11:07:31.502Z,22.61
2022-09-25T11:10:21.851Z,23.07
2022-09-25T11:13:18.411Z,23.00
2022-09-25T11:16:10.826Z,23.23
2022-09-25T11:19:08.928Z,23.02
2022-09-25T11:22:01.441Z,23.45
2022-09-25T11:25:04.080Z,23.17
2022-09-25T11:27:53.720Z,22.92
2022-09-25T11:30:43.533Z,21.93
2022-09-25T11:33:42.444Z,22.37
2022-09-25T11:36:30.769Z,22.49
2022-09-25T11:39:39.491Z,22.26
2022-09-25T11:42:32.959Z,22.27
2022-09-25T11:45:22.174Z,22.43
2022-09-25T11:48:14.551Z,22.79
2022-09-25T11:51:15.266Z,22.86
2022-09-25T11:54:31.882Z,23.53
2022-09-25T11:57:14.553Z,22.81
2022-09-25T12:00:09.125Z,22.55
2022-09-25T12:03:10.686Z,22.78
2022-09-25T12:06:21.900Z,22.99
2022-09-25T12:09:28.693Z,23.13
2022-09-25T12:12:21.914Z,23.21
2022-09-25T12:15:17.770Z,23.41
2022-09-25T12:18:08.729Z,23.51
2022-09-25T12:21:00.071Z,23.57
2022-09-25T12:23:51.943Z,23.64
2022-09-25T12:26:47.691Z,23.35
2022-09-25T12:29:55.473Z,22.85
2022-09-25T12:33:04.179Z,22.92
2022-09-25T12:35:53.144Z,23.16
2022-09-25T12:38:44.260Z,23.55
2022-09-25T12:41:40.916Z,23.13
2022-09-25T12:44:42.463Z,22.35
2022-09-25T12:47:36.496Z,22.80
2022-09-25T12:50:23.773Z,22.54
2022-09-25T12:53:27.400Z,22.74
2022-09-25T12:56:14.971Z,22.99
2022-09-25T12:59:12.356Z,23.24
2022-09-25T13:02:03.657Z,22.37
2022-09-25T13:05:04.719Z,22.08
2022-09-25T13:07:53.351Z,22.05
2022-09-25T13:10:40.783Z,21.70
2022-09-25T13:13:28.485Z,22.10
2022-09-25T13:16:18.798Z,22.20
2022-09-25T13:19:23.653Z,22.10
2022-09-25T13:22:10.492Z,22.15
2022-09-25T13:25:16.636Z,22.50
2022-09-25T13:28:08.817Z,22.97
2022-09-25T13:31:09.697Z,22.80
2022-09-25T13:34:03.506Z,22.50
2022-09-25T13:36:50.038Z,22.72
2022-09-25T13:39:54.156Z,22.21
2022-09-25T13:42:40.691Z,22.09
2022-09-25T13:45:34.657Z,21.81
2022-09-25T13:48:38.082Z,22.43
2022-09-25T13:51:37.008Z,21.71
2022-09-25T13:54:28.493Z,21.79
2022-09-25T13:57:13.353Z,21.91
2022-09-25T14:00:06.270Z,22.26
2022-09-25T14:02:51.365Z,22.12
2022-09-25T14:05:38.082Z,21.85
2022-09-25T14:08:24.024Z,21.41
2022-09-25T14:11:12.319Z,21.10
2022-09-25T14:13:57.469Z,21.45
2022-09-25T14:16:48.241Z,20.84
2022-09-25T14:19:36.270Z,21.06
2022-09-25T14:22:26.806Z,21.39
2022-09-25T14:25:27.746Z,21.38
2022-09-25T14:28:27.215Z,21.05
2022-09-25T14:31:24.781Z,21.26
2022-09-25T14:34:34.209Z,21.47
2022-09-25T14:37:37.970Z,21.46
2022-09-25T14:40:33.885Z,20.91
2022-09-25T14:43:45.402Z,20.82
2022-09-25T14:46:30.026Z,20.56
2022-09-25T14:49:27.088Z,21.25
2022-09-25T14:52:15.088Z,20.85
2022-09-25T14:55:01.665Z,20.82
2022-09-25T14:57:51.450Z,20.75
2022-09-25T15:00:36.830Z,21.31
2022-09-25T15:03:26.955Z,21.80
2022-09-25T15:06:15.981Z,21.83
2022-09-25T15:09:02.927Z,21.71
2022-09-25T15:11:47.161Z,21.31
2022-09-25T15:14:32.885Z,21.19
2022-09-25T15:17:23.732Z,21.28
2022-09-25T15:20:14.729Z,20.54
2022-09-25T15:23:02.389Z,20.67
2022-09-25T15:25:49.968Z,21.29
2022-09-25T15:28:40.454Z,20.77
2022-09-25T15:31:26.849Z,20.71
2022-09-25T15:34:14.074Z,20.31
2022-09-25T15:37:16.494Z,20.77
2022-09-25T15:40:13.157Z,20.74
2022-09-25T15:42:58.092Z,20.62
2022-09-25T15:45:46.515Z,20.34
2022-09-25T15:48:33.536Z,20.31
2022-09-25T15:51:21.107Z,20.36
2022-09-25T15:54:26.180Z,20.23
2022-09-25T15:57:14.006Z,19.61
2022-09-25T16:00:31.562Z,19.60
2022-09-25T16:03:39.067Z,19.64
2022-09-25T16:06:24.573Z,19.37
2022-09-25T16:09:21.445Z,18.85
2022-09-25T16:12:22.508Z,18.84
2022-09-25T16:15:42.702Z,19.07
2022-09-25T16:18:39.723Z,18.91
2022-09-25T16:21:30.183Z,18.50
2022-09-25T16:24:20.863Z,18.86
2022-09-25T16:27:06.090Z,19.04
2022-09-25T16:29:50.289Z,18.94
2022-09-25T16:32:34.449Z,18.68
2022-09-25T16:35:25.844Z,18.86
2022-09-25T16:38:27.680Z,18.79
2022-09-25T16:41:22.501Z,18.82
2022-09-25T16:44:15.516Z,18.75
2022-09-25T16:47:14.480Z,18.77
2022-09-25T16:49:58.776Z,18.63
2022-09-25T16:52:43.564Z,18.41
2022-09-25T16:55:30.569Z,18.38
2022-09-25T16:58:14.915Z,18.25
2022-09-25T17:01:05.430Z,18.50
2022-09-25T17:03:52.910Z,18.40
2022-09-25T17:06:42.750Z,18.60
2022-09-25T17:09:28.968Z,18.50
2022-09-25T17:12:21.315Z,18.52
2022-09-25T17:15:08.873Z,18.38
2022-09-25T17:17:55.603Z,18.24
2022-09-25T17:20:39.627Z,18.29
2022-09-25T17:23:26.034Z,18.37
2022-09-25T17:26:20.905Z,18.29
2022-09-25T17:29:06.566Z,18.02
2022-09-25T17:31:51.286Z,18.04
2022-09-25T17:34:35.398Z,17.90
2022-09-25T17:37:22.034Z,18.19
2022-09-25T17:40:06.606Z,17.88
2022-09-25T17:42:51.039Z,18.04
2022-09-25T17:45:39.434Z,17.83
2022-09-25T17:48:25.147Z,17.92
2022-09-25T17:51:17.330Z,18.02
2022-09-25T17:54:06.180Z,17.86
2022-09-25T17:56:50.700Z,17.91
2022-09-25T17:59:34.643Z,17.75
2022-09-25T18:02:21.410Z,17.61
2022-09-25T18:05:06.208Z,17.58
2022-09-25T18:07:52.463Z,17.72
2022-09-25T18:10:37.209Z,17.56
2022-09-25T18:13:21.939Z,17.58
2022-09-25T18:16:07.701Z,17.57
2022-09-25T18:19:10.495Z,17.58
2022-09-25T18:22:15.424Z,17.32
2022-09-25T18:25:00.784Z,17.19
2022-09-25T18:27:45.525Z,17.07
2022-09-25T18:30:30.406Z,16.86
2022-09-25T18:33:15.433Z,16.56
2022-09-25T18:36:00.912Z,16.66
2022-09-25T18:38:45.001Z,16.62
2022-09-25T18:41:38.380Z,16.59
2022-09-25T18:44:23.895Z,16.21
2022-09-25T18:47:10.823Z,16.58
2022-09-25T18:49:59.183Z,16.61
2022-09-25T18:52:48.670Z,16.44
2022-09-25T18:55:35.777Z,16.38
2022-09-25T18:58:24.239Z,16.48
2022-09-25T19:01:10.645Z,16.31
2022-09-25T19:03:55.024Z,16.16
2022-09-25T19:06:43.920Z,16.13
2022-09-25T19:09:29.502Z,16.41
2022-09-25T19:12:17.437Z,16.46
2022-09-25T19:15:04.147Z,16.15
2022-09-25T19:17:48.707Z,16.00
2022-09-25T19:20:35.328Z,16.08
2022-09-25T19:23:21.306Z,16.01
2022-09-25T19:26:08.555Z,16.14
2022-09-25T19:28:52.627Z,16.05
2022-09-25T19:31:36.696Z,15.89
2022-09-25T19:34:23.671Z,16.01
2022-09-25T19:37:08.730Z,15.99
2022-09-25T19:40:10.884Z,15.87
2022-09-25T19:42:58.222Z,15.83
2022-09-25T19:45:42.156Z,15.91
2022-09-25T19:48:28.220Z,16.01
2022-09-25T19:51:15.457Z,16.07
2022-09-25T19:53:59.662Z,15.85
2022-09-25T19:56:44.083Z,15.81
2022-09-25T19:59:31.867Z,16.08
2022-09-25T20:02:16.029Z,15.81
2022-09-25T20:05:00.391Z,15.95
2022-09-25T20:07:44.319Z,15.85
2022-09-25T20:10:30.787Z,15.95
2022-09-25T20:13:17.304Z,15.95
2022-09-25T20:16:10.699Z,15.95
2022-09-25T20:18:57.943Z,15.98
2022-09-25T20:21:41.998Z,15.68
2022-09-25T20:24:26.030Z,15.73
2022-09-25T20:27:09.991Z,15.71
2022-09-25T20:29:54.387Z,15.67
2022-09-25T20:32:45.362Z,15.62
2022-09-25T20:35:31.654Z,15.61
2022-09-25T20:38:15.579Z,15.65
2022-09-25T20:41:00.801Z,15.69
2022-09-25T20:43:44.962Z,15.67
2022-09-25T20:46:30.219Z,15.60
2022-09-25T20:49:20.223Z,15.60
2022-09-25T20:52:04.824Z,15.68
2022-09-25T20:54:48.688Z,15.70
2022-09-25T20:57:34.258Z,15.74
2022-09-25T21:00:19.647Z,15.45
2022-09-25T21:03:04.632Z,15.56
2022-09-25T21:05:50.082Z,15.55
2022-09-25T21:08:34.511Z,15.61
2022-09-25T21:11:18.621Z,15.60
2022-09-25T21:14:04.084Z,15.38
2022-09-25T21:16:49.340Z,15.34
2022-09-25T21:19:33.395Z,15.48
2022-09-25T21:22:19.985Z,15.42
2022-09-25T21:25:04.069Z,15.50
2022-09-25T21:27:48.358Z,15.49
2022-09-25T21:30:32.891Z,15.61
2022-09-25T21:33:17.295Z,15.46
2022-09-25T21:36:02.105Z,15.38
2022-09-25T21:38:47.584Z,15.55
2022-09-25T21:41:32.053Z,15.65
2022-09-25T21:44:17.856Z,15.62
2022-09-25T21:47:02.150Z,15.67
2022-09-25T21:49:46.037Z,15.61
2022-09-25T21:52:29.910Z,15.54
2022-09-25T21:55:15.335Z,15.60
2022-09-25T21:57:59.612Z,15.31
2022-09-25T22:00:43.585Z,15.26
2022-09-25T22:03:27.504Z,15.41
2022-09-25T22:06:14.402Z,15.10
2022-09-25T22:09:00.802Z,14.90
2022-09-25T22:11:46.801Z,15.09
2022-09-25T22:14:30.518Z,15.12
2022-09-25T22:17:14.410Z,15.20
2022-09-25T22:20:01.647Z,14.83
2022-09-25T22:22:49.358Z,14.82
2022-09-25T22:25:35.052Z,14.56
2022-09-25T22:28:20.934Z,14.79
2022-09-25T22:31:06.444Z,14.87
2022-09-25T22:33:54.266Z,14.81
2022-09-25T22:36:37.996Z,14.69
2022-09-25T22:39:21.991Z,14.56
2022-09-25T22:42:05.872Z,14.68
2022-09-25T22:44:51.028Z,14.86
2022-09-25T22:47:34.701Z,14.69
2022-09-25T22:50:18.660Z,14.70
2022-09-25T22:53:02.436Z,14.55
2022-09-25T22:55:47.795Z,14.44
2022-09-25T22:58:31.714Z,14.21
2022-09-25T23:01:19.924Z,14.46
2022-09-25T23:04:05.454Z,14.19
2022-09-25T23:06:50.249Z,14.22
2022-09-25T23:09:34.191Z,14.34
2022-09-25T23:12:18.176Z,14.39
2022-09-25T23:15:02.238Z,13.96
2022-09-25T23:17:48.549Z,13.84
2022-09-25T23:20:32.574Z,13.75
2022-09-25T23:23:16.685Z,13.44
2022-09-25T23:26:03.591Z,13.99
2022-09-25T23:28:47.377Z,14.18
2022-09-25T23:31:32.871Z,14.10
2022-09-25T23:34:18.481Z,13.79
2022-09-25T23:37:02.231Z,13.72
2022-09-25T23:39:45.989Z,14.12
2022-09-25T23:42:29.792Z,13.95
2022-09-25T23:45:14.320Z,13.95
2022-09-25T23:47:58.344Z,14.04
2022-09-25T23:50:44.064Z,13.67
2022-09-25T23:53:27.794Z,13.77
2022-09-25T23:56:13.589Z,13.73
2022-09-25T23:58:58.974Z,13.80
